sensor_id;sensor_type;location;lat;lon;timestamp;P1;durP1;ratioP1;P2;durP2;ratioP2
64619;SDS011;51029;51.058;13.826;2023-12-20T00:01:22;7.23;;;6.43;;
64619;SDS011;51029;51.058;13.826;2023-12-20T00:03:48;7.40;;;6.27;;
64619;SDS011;51029;51.058;13.826;2023-12-20T00:06:14;5.87;;;5.27;;
64619;SDS011;51029;51.058;13.826;2023-12-20T00:08:40;7.10;;;6.30;;
64619;SDS011;51029;51.058;13.826;2023-12-20T00:11:06;6.93;;;5.97;;
64619;SDS011;51029;51.058;13.826;2023-12-20T00:13:32;7.00;;;6.30;;
64619;SDS011;51029;51.058;13.826;2023-12-20T00:15:58;7.27;;;6.57;;
64619;SDS011;51029;51.058;13.826;2023-12-20T00:18:24;7.77;;;5.97;;
64619;SDS011;51029;51.058;13.826;2023-12-20T00:20:50;6.90;;;6.20;;
64619;SDS011;51029;51.058;13.826;2023-12-20T00:23:16;6.87;;;6.17;;
64619;SDS011;51029;51.058;13.826;2023-12-20T00:25:41;6.77;;;5.80;;
64619;SDS011;51029;51.058;13.826;2023-12-20T00:28:07;5.93;;;5.20;;
64619;SDS011;51029;51.058;13.826;2023-12-20T00:30:33;6.30;;;5.70;;
64619;SDS011;51029;51.058;13.826;2023-12-20T00:32:59;6.23;;;5.63;;
64619;SDS011;51029;51.058;13.826;2023-12-20T00:35:25;6.57;;;5.87;;
64619;SDS011;51029;51.058;13.826;2023-12-20T00:37:51;6.67;;;5.97;;
64619;SDS011;51029;51.058;13.826;2023-12-20T00:40:17;5.50;;;5.00;;
64619;SDS011;51029;51.058;13.826;2023-12-20T00:42:43;5.77;;;5.03;;
64619;SDS011;51029;51.058;13.826;2023-12-20T00:45:09;5.17;;;4.10;;
64619;SDS011;51029;51.058;13.826;2023-12-20T00:47:35;5.47;;;4.87;;
64619;SDS011;51029;51.058;13.826;2023-12-20T00:50:01;5.00;;;4.50;;
64619;SDS011;51029;51.058;13.826;2023-12-20T00:52:27;6.13;;;4.40;;
64619;SDS011;51029;51.058;13.826;2023-12-20T00:54:53;4.93;;;4.33;;
64619;SDS011;51029;51.058;13.826;2023-12-20T00:57:19;4.63;;;4.23;;
64619;SDS011;51029;51.058;13.826;2023-12-20T00:59:45;4.10;;;3.70;;
64619;SDS011;51029;51.058;13.826;2023-12-20T01:02:11;4.10;;;3.70;;
64619;SDS011;51029;51.058;13.826;2023-12-20T01:04:37;4.03;;;3.63;;
64619;SDS011;51029;51.058;13.826;2023-12-20T01:07:03;4.40;;;4.00;;
64619;SDS011;51029;51.058;13.826;2023-12-20T01:09:29;4.53;;;4.07;;
64619;SDS011;51029;51.058;13.826;2023-12-20T01:11:54;4.70;;;4.30;;
64619;SDS011;51029;51.058;13.826;2023-12-20T01:14:20;4.70;;;3.50;;
64619;SDS011;51029;51.058;13.826;2023-12-20T01:16:46;4.07;;;3.67;;
64619;SDS011;51029;51.058;13.826;2023-12-20T01:19:13;4.07;;;3.60;;
64619;SDS011;51029;51.058;13.826;2023-12-20T01:21:39;5.83;;;3.87;;
64619;SDS011;51029;51.058;13.826;2023-12-20T01:24:05;4.23;;;3.83;;
64619;SDS011;51029;51.058;13.826;2023-12-20T01:26:31;4.30;;;3.53;;
64619;SDS011;51029;51.058;13.826;2023-12-20T01:28:57;4.00;;;3.40;;
64619;SDS011;51029;51.058;13.826;2023-12-20T01:31:23;3.60;;;3.30;;
64619;SDS011;51029;51.058;13.826;2023-12-20T01:33:49;3.53;;;3.23;;
64619;SDS011;51029;51.058;13.826;2023-12-20T01:36:15;3.50;;;3.20;;
64619;SDS011;51029;51.058;13.826;2023-12-20T01:38:41;4.30;;;3.60;;
64619;SDS011;51029;51.058;13.826;2023-12-20T01:41:07;4.13;;;3.80;;
64619;SDS011;51029;51.058;13.826;2023-12-20T01:43:33;3.60;;;3.30;;
64619;SDS011;51029;51.058;13.826;2023-12-20T01:45:59;3.63;;;3.30;;
64619;SDS011;51029;51.058;13.826;2023-12-20T01:48:25;3.77;;;3.37;;
64619;SDS011;51029;51.058;13.826;2023-12-20T01:50:51;3.80;;;3.40;;
64619;SDS011;51029;51.058;13.826;2023-12-20T01:53:18;3.87;;;3.57;;
64619;SDS011;51029;51.058;13.826;2023-12-20T01:55:44;4.10;;;3.70;;
64619;SDS011;51029;51.058;13.826;2023-12-20T01:58:10;3.90;;;3.40;;
64619;SDS011;51029;51.058;13.826;2023-12-20T02:00:37;4.30;;;3.90;;
64619;SDS011;51029;51.058;13.826;2023-12-20T02:03:03;4.47;;;3.73;;
64619;SDS011;51029;51.058;13.826;2023-12-20T02:05:30;4.00;;;3.57;;
64619;SDS011;51029;51.058;13.826;2023-12-20T02:07:56;3.23;;;2.70;;
64619;SDS011;51029;51.058;13.826;2023-12-20T02:10:22;3.57;;;3.27;;
64619;SDS011;51029;51.058;13.826;2023-12-20T02:12:48;3.37;;;2.90;;
64619;SDS011;51029;51.058;13.826;2023-12-20T02:15:14;3.23;;;2.90;;
64619;SDS011;51029;51.058;13.826;2023-12-20T02:17:40;3.07;;;2.87;;
64619;SDS011;51029;51.058;13.826;2023-12-20T02:20:06;3.27;;;2.97;;
64619;SDS011;51029;51.058;13.826;2023-12-20T02:22:32;2.67;;;2.47;;
64619;SDS011;51029;51.058;13.826;2023-12-20T02:24:58;2.70;;;2.50;;
64619;SDS011;51029;51.058;13.826;2023-12-20T02:27:24;2.53;;;2.33;;
64619;SDS011;51029;51.058;13.826;2023-12-20T02:29:50;2.90;;;2.70;;
64619;SDS011;51029;51.058;13.826;2023-12-20T02:32:16;2.67;;;2.47;;
64619;SDS011;51029;51.058;13.826;2023-12-20T02:34:43;2.50;;;2.30;;
64619;SDS011;51029;51.058;13.826;2023-12-20T02:37:08;2.90;;;2.57;;
64619;SDS011;51029;51.058;13.826;2023-12-20T02:39:34;2.37;;;2.17;;
64619;SDS011;51029;51.058;13.826;2023-12-20T02:42:00;2.50;;;2.30;;
64619;SDS011;51029;51.058;13.826;2023-12-20T02:44:26;3.00;;;2.20;;
64619;SDS011;51029;51.058;13.826;2023-12-20T02:46:52;2.23;;;2.03;;
64619;SDS011;51029;51.058;13.826;2023-12-20T02:49:18;2.00;;;1.90;;
64619;SDS011;51029;51.058;13.826;2023-12-20T02:51:44;2.30;;;2.00;;
64619;SDS011;51029;51.058;13.826;2023-12-20T02:54:11;1.90;;;1.80;;
64619;SDS011;51029;51.058;13.826;2023-12-20T02:56:37;2.33;;;1.93;;
64619;SDS011;51029;51.058;13.826;2023-12-20T02:59:03;2.30;;;1.90;;
64619;SDS011;51029;51.058;13.826;2023-12-20T03:01:30;2.00;;;1.80;;
64619;SDS011;51029;51.058;13.826;2023-12-20T03:03:56;2.33;;;2.13;;
64619;SDS011;51029;51.058;13.826;2023-12-20T03:06:22;2.30;;;2.10;;
64619;SDS011;51029;51.058;13.826;2023-12-20T03:08:48;2.10;;;2.00;;
64619;SDS011;51029;51.058;13.826;2023-12-20T03:11:14;2.70;;;1.97;;
64619;SDS011;51029;51.058;13.826;2023-12-20T03:13:40;2.30;;;2.00;;
64619;SDS011;51029;51.058;13.826;2023-12-20T03:16:13;2.20;;;2.00;;
64619;SDS011;51029;51.058;13.826;2023-12-20T03:18:41;2.10;;;1.90;;
64619;SDS011;51029;51.058;13.826;2023-12-20T03:21:06;2.20;;;2.00;;
64619;SDS011;51029;51.058;13.826;2023-12-20T03:23:32;2.27;;;2.10;;
64619;SDS011;51029;51.058;13.826;2023-12-20T03:25:59;2.03;;;1.93;;
64619;SDS011;51029;51.058;13.826;2023-12-20T03:28:26;2.03;;;1.93;;
64619;SDS011;51029;51.058;13.826;2023-12-20T03:30:52;2.27;;;1.80;;
64619;SDS011;51029;51.058;13.826;2023-12-20T03:33:18;1.90;;;1.80;;
64619;SDS011;51029;51.058;13.826;2023-12-20T03:35:44;2.40;;;2.20;;
64619;SDS011;51029;51.058;13.826;2023-12-20T03:38:10;2.03;;;1.93;;
64619;SDS011;51029;51.058;13.826;2023-12-20T03:40:36;2.03;;;1.90;;
64619;SDS011;51029;51.058;13.826;2023-12-20T03:43:01;2.03;;;1.87;;
64619;SDS011;51029;51.058;13.826;2023-12-20T03:45:27;2.10;;;2.00;;
64619;SDS011;51029;51.058;13.826;2023-12-20T03:47:53;2.03;;;1.90;;
64619;SDS011;51029;51.058;13.826;2023-12-20T03:50:24;2.00;;;1.90;;
64619;SDS011;51029;51.058;13.826;2023-12-20T03:52:50;2.07;;;1.97;;
64619;SDS011;51029;51.058;13.826;2023-12-20T03:55:16;2.10;;;1.90;;
64619;SDS011;51029;51.058;13.826;2023-12-20T03:57:42;2.00;;;1.90;;
64619;SDS011;51029;51.058;13.826;2023-12-20T04:00:08;2.00;;;1.80;;
64619;SDS011;51029;51.058;13.826;2023-12-20T04:02:35;1.93;;;1.83;;
64619;SDS011;51029;51.058;13.826;2023-12-20T04:05:01;1.93;;;1.83;;
64619;SDS011;51029;51.058;13.826;2023-12-20T04:07:27;2.17;;;1.97;;
64619;SDS011;51029;51.058;13.826;2023-12-20T04:09:54;1.93;;;1.83;;
64619;SDS011;51029;51.058;13.826;2023-12-20T04:12:19;2.30;;;2.10;;
64619;SDS011;51029;51.058;13.826;2023-12-20T04:14:45;2.43;;;2.00;;
64619;SDS011;51029;51.058;13.826;2023-12-20T04:17:11;2.47;;;2.27;;
64619;SDS011;51029;51.058;13.826;2023-12-20T04:19:37;2.47;;;2.27;;
64619;SDS011;51029;51.058;13.826;2023-12-20T04:22:03;2.30;;;2.10;;
64619;SDS011;51029;51.058;13.826;2023-12-20T04:24:29;2.00;;;1.90;;
64619;SDS011;51029;51.058;13.826;2023-12-20T04:26:55;2.00;;;1.80;;
64619;SDS011;51029;51.058;13.826;2023-12-20T04:29:21;3.30;;;1.90;;
64619;SDS011;51029;51.058;13.826;2023-12-20T04:31:47;1.90;;;1.80;;
64619;SDS011;51029;51.058;13.826;2023-12-20T04:34:13;2.20;;;2.10;;
64619;SDS011;51029;51.058;13.826;2023-12-20T04:36:39;1.97;;;1.87;;
64619;SDS011;51029;51.058;13.826;2023-12-20T04:39:05;2.10;;;1.93;;
64619;SDS011;51029;51.058;13.826;2023-12-20T04:41:31;3.93;;;2.40;;
64619;SDS011;51029;51.058;13.826;2023-12-20T04:43:57;2.57;;;2.13;;
64619;SDS011;51029;51.058;13.826;2023-12-20T04:46:23;2.50;;;2.30;;
64619;SDS011;51029;51.058;13.826;2023-12-20T04:48:49;2.10;;;2.00;;
64619;SDS011;51029;51.058;13.826;2023-12-20T04:51:15;2.13;;;2.03;;
64619;SDS011;51029;51.058;13.826;2023-12-20T04:53:41;2.80;;;2.20;;
64619;SDS011;51029;51.058;13.826;2023-12-20T04:56:07;2.20;;;2.10;;
64619;SDS011;51029;51.058;13.826;2023-12-20T04:58:32;2.40;;;2.20;;
64619;SDS011;51029;51.058;13.826;2023-12-20T05:00:58;2.60;;;2.40;;
64619;SDS011;51029;51.058;13.826;2023-12-20T05:03:24;2.60;;;2.40;;
64619;SDS011;51029;51.058;13.826;2023-12-20T05:05:50;2.33;;;2.03;;
64619;SDS011;51029;51.058;13.826;2023-12-20T05:08:16;3.13;;;2.27;;
64619;SDS011;51029;51.058;13.826;2023-12-20T05:10:42;2.67;;;2.47;;
64619;SDS011;51029;51.058;13.826;2023-12-20T05:13:08;2.20;;;2.10;;
64619;SDS011;51029;51.058;13.826;2023-12-20T05:15:34;2.27;;;2.07;;
64619;SDS011;51029;51.058;13.826;2023-12-20T05:18:00;2.60;;;2.40;;
64619;SDS011;51029;51.058;13.826;2023-12-20T05:20:26;2.73;;;2.40;;
64619;SDS011;51029;51.058;13.826;2023-12-20T05:22:52;2.50;;;2.30;;
64619;SDS011;51029;51.058;13.826;2023-12-20T05:25:18;3.10;;;2.40;;
64619;SDS011;51029;51.058;13.826;2023-12-20T05:27:44;2.50;;;2.30;;
64619;SDS011;51029;51.058;13.826;2023-12-20T05:30:10;2.70;;;2.50;;
64619;SDS011;51029;51.058;13.826;2023-12-20T05:32:36;3.73;;;2.20;;
64619;SDS011;51029;51.058;13.826;2023-12-20T05:35:02;2.73;;;2.40;;
64619;SDS011;51029;51.058;13.826;2023-12-20T05:37:28;3.00;;;2.60;;
64619;SDS011;51029;51.058;13.826;2023-12-20T05:39:54;2.47;;;2.27;;
64619;SDS011;51029;51.058;13.826;2023-12-20T05:42:19;2.90;;;2.50;;
64619;SDS011;51029;51.058;13.826;2023-12-20T05:44:45;2.80;;;2.60;;
64619;SDS011;51029;51.058;13.826;2023-12-20T05:47:11;3.10;;;2.87;;
64619;SDS011;51029;51.058;13.826;2023-12-20T05:49:37;4.10;;;3.60;;
64619;SDS011;51029;51.058;13.826;2023-12-20T05:52:03;5.20;;;3.10;;
64619;SDS011;51029;51.058;13.826;2023-12-20T05:54:29;3.10;;;2.50;;
64619;SDS011;51029;51.058;13.826;2023-12-20T05:56:55;3.37;;;2.70;;
64619;SDS011;51029;51.058;13.826;2023-12-20T05:59:21;2.77;;;2.33;;
64619;SDS011;51029;51.058;13.826;2023-12-20T06:01:47;2.57;;;2.37;;
64619;SDS011;51029;51.058;13.826;2023-12-20T06:04:13;2.60;;;2.40;;
64619;SDS011;51029;51.058;13.826;2023-12-20T06:06:43;2.60;;;2.40;;
64619;SDS011;51029;51.058;13.826;2023-12-20T06:09:09;3.10;;;2.53;;
64619;SDS011;51029;51.058;13.826;2023-12-20T06:11:35;2.50;;;2.30;;
64619;SDS011;51029;51.058;13.826;2023-12-20T06:14:01;3.73;;;2.83;;
64619;SDS011;51029;51.058;13.826;2023-12-20T06:16:27;5.13;;;2.60;;
64619;SDS011;51029;51.058;13.826;2023-12-20T06:18:52;2.70;;;2.40;;
64619;SDS011;51029;51.058;13.826;2023-12-20T06:21:18;3.00;;;2.70;;
64619;SDS011;51029;51.058;13.826;2023-12-20T06:23:45;3.07;;;2.77;;
64619;SDS011;51029;51.058;13.826;2023-12-20T06:26:10;5.77;;;3.00;;
64619;SDS011;51029;51.058;13.826;2023-12-20T06:28:36;3.07;;;2.77;;
64619;SDS011;51029;51.058;13.826;2023-12-20T06:31:02;3.10;;;2.67;;
64619;SDS011;51029;51.058;13.826;2023-12-20T06:33:28;3.13;;;2.83;;
64619;SDS011;51029;51.058;13.826;2023-12-20T06:35:56;3.90;;;2.70;;
64619;SDS011;51029;51.058;13.826;2023-12-20T06:38:22;3.40;;;3.10;;
64619;SDS011;51029;51.058;13.826;2023-12-20T06:40:48;3.43;;;3.13;;
64619;SDS011;51029;51.058;13.826;2023-12-20T06:43:14;5.00;;;3.17;;
64619;SDS011;51029;51.058;13.826;2023-12-20T06:45:40;4.00;;;3.50;;
64619;SDS011;51029;51.058;13.826;2023-12-20T06:48:06;4.30;;;3.83;;
64619;SDS011;51029;51.058;13.826;2023-12-20T06:50:32;5.43;;;3.73;;
64619;SDS011;51029;51.058;13.826;2023-12-20T06:52:58;4.03;;;3.63;;
64619;SDS011;51029;51.058;13.826;2023-12-20T06:55:24;4.17;;;3.87;;
64619;SDS011;51029;51.058;13.826;2023-12-20T06:57:49;4.30;;;3.90;;
64619;SDS011;51029;51.058;13.826;2023-12-20T07:00:16;5.33;;;4.83;;
64619;SDS011;51029;51.058;13.826;2023-12-20T07:02:43;5.23;;;4.73;;
64619;SDS011;51029;51.058;13.826;2023-12-20T07:05:09;6.60;;;4.70;;
64619;SDS011;51029;51.058;13.826;2023-12-20T07:07:35;6.43;;;5.27;;
64619;SDS011;51029;51.058;13.826;2023-12-20T07:10:01;5.30;;;4.80;;
64619;SDS011;51029;51.058;13.826;2023-12-20T07:12:27;5.57;;;4.83;;
64619;SDS011;51029;51.058;13.826;2023-12-20T07:14:53;6.13;;;5.13;;
64619;SDS011;51029;51.058;13.826;2023-12-20T07:17:19;5.93;;;5.33;;
64619;SDS011;51029;51.058;13.826;2023-12-20T07:19:46;6.20;;;5.60;;
64619;SDS011;51029;51.058;13.826;2023-12-20T07:22:12;5.93;;;5.43;;
64619;SDS011;51029;51.058;13.826;2023-12-20T07:24:38;6.40;;;5.63;;
64619;SDS011;51029;51.058;13.826;2023-12-20T07:27:04;6.50;;;5.90;;
64619;SDS011;51029;51.058;13.826;2023-12-20T07:29:30;6.97;;;5.97;;
64619;SDS011;51029;51.058;13.826;2023-12-20T07:31:56;6.53;;;5.93;;
64619;SDS011;51029;51.058;13.826;2023-12-20T07:34:22;7.30;;;6.60;;
64619;SDS011;51029;51.058;13.826;2023-12-20T07:36:48;6.60;;;6.00;;
64619;SDS011;51029;51.058;13.826;2023-12-20T07:39:14;6.93;;;6.23;;
64619;SDS011;51029;51.058;13.826;2023-12-20T07:41:40;7.20;;;6.50;;
64619;SDS011;51029;51.058;13.826;2023-12-20T07:44:06;7.60;;;6.80;;
64619;SDS011;51029;51.058;13.826;2023-12-20T07:46:32;7.70;;;6.37;;
64619;SDS011;51029;51.058;13.826;2023-12-20T07:48:58;8.40;;;7.60;;
64619;SDS011;51029;51.058;13.826;2023-12-20T07:51:24;8.20;;;7.33;;
64619;SDS011;51029;51.058;13.826;2023-12-20T07:53:51;9.80;;;7.90;;
64619;SDS011;51029;51.058;13.826;2023-12-20T07:56:17;9.87;;;8.87;;
64619;SDS011;51029;51.058;13.826;2023-12-20T07:58:44;8.37;;;7.57;;
64619;SDS011;51029;51.058;13.826;2023-12-20T08:01:10;8.30;;;7.47;;
64619;SDS011;51029;51.058;13.826;2023-12-20T08:03:36;8.93;;;8.13;;
64619;SDS011;51029;51.058;13.826;2023-12-20T08:06:02;8.37;;;7.37;;
64619;SDS011;51029;51.058;13.826;2023-12-20T08:08:28;10.02;;;9.13;;
64619;SDS011;51029;51.058;13.826;2023-12-20T08:10:54;10.65;;;9.68;;
64619;SDS011;51029;51.058;13.826;2023-12-20T08:13:22;9.47;;;7.00;;
64619;SDS011;51029;51.058;13.826;2023-12-20T08:15:51;7.80;;;7.10;;
64619;SDS011;51029;51.058;13.826;2023-12-20T08:18:16;9.10;;;8.20;;
64619;SDS011;51029;51.058;13.826;2023-12-20T08:20:42;8.43;;;7.50;;
64619;SDS011;51029;51.058;13.826;2023-12-20T08:23:08;8.17;;;7.37;;
64619;SDS011;51029;51.058;13.826;2023-12-20T08:25:34;6.53;;;5.93;;
64619;SDS011;51029;51.058;13.826;2023-12-20T08:28:01;6.60;;;5.93;;
64619;SDS011;51029;51.058;13.826;2023-12-20T08:30:28;5.83;;;4.87;;
64619;SDS011;51029;51.058;13.826;2023-12-20T08:32:54;4.90;;;4.40;;
64619;SDS011;51029;51.058;13.826;2023-12-20T08:35:20;6.67;;;4.60;;
64619;SDS011;51029;51.058;13.826;2023-12-20T08:37:46;4.07;;;3.67;;
64619;SDS011;51029;51.058;13.826;2023-12-20T08:40:12;5.33;;;3.77;;
64619;SDS011;51029;51.058;13.826;2023-12-20T08:42:38;3.83;;;3.53;;
64619;SDS011;51029;51.058;13.826;2023-12-20T08:45:04;4.80;;;3.67;;
64619;SDS011;51029;51.058;13.826;2023-12-20T08:47:30;2.77;;;2.50;;
64619;SDS011;51029;51.058;13.826;2023-12-20T08:49:56;3.07;;;2.80;;
64619;SDS011;51029;51.058;13.826;2023-12-20T08:52:24;3.07;;;2.43;;
64619;SDS011;51029;51.058;13.826;2023-12-20T08:54:52;5.07;;;2.90;;
64619;SDS011;51029;51.058;13.826;2023-12-20T08:57:19;3.27;;;2.80;;
64619;SDS011;51029;51.058;13.826;2023-12-20T08:59:46;2.70;;;2.23;;
64619;SDS011;51029;51.058;13.826;2023-12-20T09:02:12;3.50;;;2.93;;
64619;SDS011;51029;51.058;13.826;2023-12-20T09:04:38;3.10;;;2.40;;
64619;SDS011;51029;51.058;13.826;2023-12-20T09:07:04;3.30;;;2.60;;
64619;SDS011;51029;51.058;13.826;2023-12-20T09:09:30;5.13;;;2.83;;
64619;SDS011;51029;51.058;13.826;2023-12-20T09:11:57;5.10;;;2.73;;
64619;SDS011;51029;51.058;13.826;2023-12-20T09:14:23;4.70;;;2.40;;
64619;SDS011;51029;51.058;13.826;2023-12-20T09:16:49;3.77;;;2.33;;
64619;SDS011;51029;51.058;13.826;2023-12-20T09:19:16;5.17;;;2.07;;
64619;SDS011;51029;51.058;13.826;2023-12-20T09:21:42;3.80;;;1.80;;
64619;SDS011;51029;51.058;13.826;2023-12-20T09:24:08;2.63;;;1.60;;
64619;SDS011;51029;51.058;13.826;2023-12-20T09:26:34;2.37;;;1.47;;
64619;SDS011;51029;51.058;13.826;2023-12-20T09:29:00;2.13;;;1.47;;
64619;SDS011;51029;51.058;13.826;2023-12-20T09:31:26;2.27;;;1.70;;
64619;SDS011;51029;51.058;13.826;2023-12-20T09:33:52;3.80;;;1.77;;
64619;SDS011;51029;51.058;13.826;2023-12-20T09:36:18;2.50;;;1.73;;
64619;SDS011;51029;51.058;13.826;2023-12-20T09:38:44;3.37;;;1.60;;
64619;SDS011;51029;51.058;13.826;2023-12-20T09:41:10;2.77;;;1.80;;
64619;SDS011;51029;51.058;13.826;2023-12-20T09:43:37;4.10;;;1.80;;
64619;SDS011;51029;51.058;13.826;2023-12-20T09:46:05;4.20;;;1.97;;
64619;SDS011;51029;51.058;13.826;2023-12-20T09:48:32;4.60;;;2.00;;
64619;SDS011;51029;51.058;13.826;2023-12-20T09:50:58;3.73;;;2.30;;
64619;SDS011;51029;51.058;13.826;2023-12-20T09:53:24;3.67;;;2.33;;
64619;SDS011;51029;51.058;13.826;2023-12-20T09:55:55;3.50;;;1.80;;
64619;SDS011;51029;51.058;13.826;2023-12-20T09:58:22;3.77;;;1.80;;
64619;SDS011;51029;51.058;13.826;2023-12-20T10:00:48;5.07;;;2.27;;
64619;SDS011;51029;51.058;13.826;2023-12-20T10:03:14;4.73;;;1.93;;
64619;SDS011;51029;51.058;13.826;2023-12-20T10:05:40;2.00;;;1.70;;
64619;SDS011;51029;51.058;13.826;2023-12-20T10:08:08;6.10;;;1.90;;
64619;SDS011;51029;51.058;13.826;2023-12-20T10:10:34;3.00;;;2.13;;
64619;SDS011;51029;51.058;13.826;2023-12-20T10:13:07;3.30;;;1.53;;
64619;SDS011;51029;51.058;13.826;2023-12-20T10:15:34;3.20;;;1.43;;
64619;SDS011;51029;51.058;13.826;2023-12-20T10:18:01;3.30;;;1.67;;
64619;SDS011;51029;51.058;13.826;2023-12-20T10:20:27;2.43;;;1.33;;
64619;SDS011;51029;51.058;13.826;2023-12-20T10:22:56;2.00;;;1.53;;
64619;SDS011;51029;51.058;13.826;2023-12-20T10:25:22;2.53;;;1.70;;
64619;SDS011;51029;51.058;13.826;2023-12-20T10:27:49;3.43;;;1.67;;
64619;SDS011;51029;51.058;13.826;2023-12-20T10:30:15;3.80;;;1.93;;
64619;SDS011;51029;51.058;13.826;2023-12-20T10:32:41;2.70;;;1.53;;
64619;SDS011;51029;51.058;13.826;2023-12-20T10:35:08;6.13;;;1.80;;
64619;SDS011;51029;51.058;13.826;2023-12-20T10:37:37;4.87;;;2.10;;
64619;SDS011;51029;51.058;13.826;2023-12-20T10:40:04;3.30;;;1.77;;
64619;SDS011;51029;51.058;13.826;2023-12-20T10:42:31;3.37;;;1.70;;
64619;SDS011;51029;51.058;13.826;2023-12-20T10:44:59;3.80;;;1.90;;
64619;SDS011;51029;51.058;13.826;2023-12-20T10:47:25;4.07;;;1.83;;
64619;SDS011;51029;51.058;13.826;2023-12-20T10:49:52;4.67;;;2.03;;
64619;SDS011;51029;51.058;13.826;2023-12-20T10:52:18;3.63;;;1.80;;
64619;SDS011;51029;51.058;13.826;2023-12-20T10:54:45;7.10;;;2.47;;
64619;SDS011;51029;51.058;13.826;2023-12-20T10:57:11;4.07;;;2.20;;
64619;SDS011;51029;51.058;13.826;2023-12-20T10:59:37;5.67;;;1.97;;
64619;SDS011;51029;51.058;13.826;2023-12-20T11:02:04;6.33;;;2.10;;
64619;SDS011;51029;51.058;13.826;2023-12-20T11:04:42;4.70;;;2.30;;
64619;SDS011;51029;51.058;13.826;2023-12-20T11:07:29;4.30;;;1.90;;
64619;SDS011;51029;51.058;13.826;2023-12-20T11:09:59;3.10;;;2.07;;
64619;SDS011;51029;51.058;13.826;2023-12-20T11:12:35;3.10;;;1.90;;
64619;SDS011;51029;51.058;13.826;2023-12-20T11:15:02;4.27;;;2.20;;
64619;SDS011;51029;51.058;13.826;2023-12-20T11:17:29;3.93;;;1.97;;
64619;SDS011;51029;51.058;13.826;2023-12-20T11:22:21;4.57;;;2.20;;
64619;SDS011;51029;51.058;13.826;2023-12-20T11:24:47;3.90;;;2.07;;
64619;SDS011;51029;51.058;13.826;2023-12-20T11:27:13;6.87;;;2.20;;
64619;SDS011;51029;51.058;13.826;2023-12-20T11:29:39;4.93;;;2.33;;
64619;SDS011;51029;51.058;13.826;2023-12-20T11:37:22;5.53;;;2.40;;
64619;SDS011;51029;51.058;13.826;2023-12-20T11:42:38;4.67;;;2.23;;
64619;SDS011;51029;51.058;13.826;2023-12-20T11:45:05;3.77;;;2.07;;
64619;SDS011;51029;51.058;13.826;2023-12-20T11:47:31;3.53;;;2.10;;
64619;SDS011;51029;51.058;13.826;2023-12-20T11:49:57;4.00;;;2.10;;
64619;SDS011;51029;51.058;13.826;2023-12-20T11:52:25;6.10;;;2.33;;
64619;SDS011;51029;51.058;13.826;2023-12-20T11:54:51;3.63;;;2.10;;
64619;SDS011;51029;51.058;13.826;2023-12-20T11:57:17;5.20;;;2.10;;
64619;SDS011;51029;51.058;13.826;2023-12-20T11:59:43;4.77;;;2.43;;
64619;SDS011;51029;51.058;13.826;2023-12-20T12:02:11;4.77;;;2.23;;
64619;SDS011;51029;51.058;13.826;2023-12-20T12:04:37;3.40;;;1.97;;
64619;SDS011;51029;51.058;13.826;2023-12-20T12:07:03;4.30;;;2.27;;
64619;SDS011;51029;51.058;13.826;2023-12-20T12:09:29;4.60;;;2.17;;
64619;SDS011;51029;51.058;13.826;2023-12-20T12:11:54;3.33;;;2.00;;
64619;SDS011;51029;51.058;13.826;2023-12-20T12:14:20;4.57;;;2.20;;
64619;SDS011;51029;51.058;13.826;2023-12-20T12:16:47;4.23;;;2.13;;
64619;SDS011;51029;51.058;13.826;2023-12-20T12:19:21;4.77;;;1.90;;
64619;SDS011;51029;51.058;13.826;2023-12-20T12:21:47;4.43;;;1.93;;
64619;SDS011;51029;51.058;13.826;2023-12-20T12:24:13;2.90;;;1.97;;
64619;SDS011;51029;51.058;13.826;2023-12-20T12:26:39;3.30;;;2.00;;
64619;SDS011;51029;51.058;13.826;2023-12-20T12:29:08;3.67;;;1.90;;
64619;SDS011;51029;51.058;13.826;2023-12-20T12:31:34;4.87;;;2.00;;
64619;SDS011;51029;51.058;13.826;2023-12-20T12:34:00;3.50;;;2.07;;
64619;SDS011;51029;51.058;13.826;2023-12-20T12:36:27;3.33;;;2.37;;
64619;SDS011;51029;51.058;13.826;2023-12-20T12:38:56;3.93;;;1.90;;
64619;SDS011;51029;51.058;13.826;2023-12-20T12:41:22;3.43;;;1.70;;
64619;SDS011;51029;51.058;13.826;2023-12-20T12:43:48;4.40;;;1.93;;
64619;SDS011;51029;51.058;13.826;2023-12-20T12:46:14;4.17;;;2.00;;
64619;SDS011;51029;51.058;13.826;2023-12-20T12:48:40;5.30;;;1.93;;
64619;SDS011;51029;51.058;13.826;2023-12-20T12:51:06;5.03;;;2.00;;
64619;SDS011;51029;51.058;13.826;2023-12-20T12:53:37;5.17;;;1.80;;
64619;SDS011;51029;51.058;13.826;2023-12-20T12:56:03;3.00;;;1.90;;
64619;SDS011;51029;51.058;13.826;2023-12-20T12:58:29;4.00;;;2.20;;
64619;SDS011;51029;51.058;13.826;2023-12-20T13:00:55;4.00;;;1.80;;
64619;SDS011;51029;51.058;13.826;2023-12-20T13:03:21;3.10;;;2.00;;
64619;SDS011;51029;51.058;13.826;2023-12-20T13:05:47;5.53;;;2.20;;
64619;SDS011;51029;51.058;13.826;2023-12-20T13:08:13;4.60;;;2.07;;
64619;SDS011;51029;51.058;13.826;2023-12-20T13:10:39;3.60;;;1.90;;
64619;SDS011;51029;51.058;13.826;2023-12-20T13:13:05;1.80;;;1.70;;
64619;SDS011;51029;51.058;13.826;2023-12-20T13:15:31;5.63;;;1.70;;
64619;SDS011;51029;51.058;13.826;2023-12-20T13:17:57;3.47;;;2.13;;
64619;SDS011;51029;51.058;13.826;2023-12-20T13:20:23;3.93;;;1.83;;
64619;SDS011;51029;51.058;13.826;2023-12-20T13:22:49;4.70;;;1.90;;
64619;SDS011;51029;51.058;13.826;2023-12-20T13:25:15;5.50;;;1.87;;
64619;SDS011;51029;51.058;13.826;2023-12-20T13:27:41;2.77;;;1.77;;
64619;SDS011;51029;51.058;13.826;2023-12-20T13:30:07;3.30;;;1.90;;
64619;SDS011;51029;51.058;13.826;2023-12-20T13:32:33;3.00;;;1.93;;
64619;SDS011;51029;51.058;13.826;2023-12-20T13:34:59;3.63;;;1.80;;
64619;SDS011;51029;51.058;13.826;2023-12-20T13:37:25;3.57;;;2.00;;
64619;SDS011;51029;51.058;13.826;2023-12-20T13:39:51;4.50;;;1.70;;
64619;SDS011;51029;51.058;13.826;2023-12-20T13:42:16;4.13;;;1.73;;
64619;SDS011;51029;51.058;13.826;2023-12-20T13:44:42;3.80;;;1.87;;
64619;SDS011;51029;51.058;13.826;2023-12-20T13:47:09;4.67;;;1.97;;
64619;SDS011;51029;51.058;13.826;2023-12-20T13:49:34;3.87;;;2.07;;
64619;SDS011;51029;51.058;13.826;2023-12-20T13:52:00;4.37;;;1.90;;
64619;SDS011;51029;51.058;13.826;2023-12-20T13:54:28;2.97;;;1.90;;
64619;SDS011;51029;51.058;13.826;2023-12-20T13:56:54;3.83;;;2.13;;
64619;SDS011;51029;51.058;13.826;2023-12-20T13:59:20;2.93;;;1.70;;
64619;SDS011;51029;51.058;13.826;2023-12-20T14:01:45;2.53;;;1.60;;
64619;SDS011;51029;51.058;13.826;2023-12-20T14:04:11;3.10;;;1.97;;
64619;SDS011;51029;51.058;13.826;2023-12-20T14:06:37;3.40;;;1.60;;
64619;SDS011;51029;51.058;13.826;2023-12-20T14:09:03;3.73;;;2.00;;
64619;SDS011;51029;51.058;13.826;2023-12-20T14:11:29;4.97;;;2.30;;
64619;SDS011;51029;51.058;13.826;2023-12-20T14:13:55;6.60;;;2.43;;
64619;SDS011;51029;51.058;13.826;2023-12-20T14:16:23;4.60;;;1.80;;
64619;SDS011;51029;51.058;13.826;2023-12-20T14:18:49;3.87;;;1.73;;
64619;SDS011;51029;51.058;13.826;2023-12-20T14:21:16;3.53;;;2.00;;
64619;SDS011;51029;51.058;13.826;2023-12-20T14:23:43;6.70;;;1.97;;
64619;SDS011;51029;51.058;13.826;2023-12-20T14:26:09;4.87;;;1.90;;
64619;SDS011;51029;51.058;13.826;2023-12-20T14:28:40;2.83;;;1.60;;
64619;SDS011;51029;51.058;13.826;2023-12-20T14:31:06;3.03;;;1.80;;
64619;SDS011;51029;51.058;13.826;2023-12-20T14:33:32;3.13;;;1.80;;
64619;SDS011;51029;51.058;13.826;2023-12-20T14:35:58;3.60;;;1.90;;
64619;SDS011;51029;51.058;13.826;2023-12-20T14:38:23;2.73;;;1.83;;